Time;durP1;ratioP1;P1;durP2;ratioP2;P2;SDS_P1;SDS_P2;PMS_P1;PMS_P2;Temp;Humidity;BMP_temperature;BMP_pressure;BME280_temperature;BME280_humidity;BME280_pressure;Samples;Min_cycle;Max_cycle;Signal;HPM_P1;HPM_P2
2022/01/22 00:00:11;;;;;;;6.07;1.90;;;-1.50;99.90;;;;;;5059587;28;20197;-80
2022/01/22 00:02:37;;;;;;;5.13;1.80;;;-1.50;99.90;;;;;;5059784;28;20340;-80
2022/01/22 00:05:05;;;;;;;7.67;2.13;;;-1.40;99.90;;;;;;5059345;28;20541;-80
2022/01/22 00:07:31;;;;;;;4.27;2.13;;;-1.50;99.90;;;;;;5058861;28;20212;-78
2022/01/22 00:10:03;;;;;;;4.60;2.03;;;0.30;99.90;;;;;;5054783;28;20492;-78
2022/01/22 00:15:20;;;;;;;2.70;1.93;;;-1.40;99.90;;;;;;5056188;28;20424;-80
2022/01/22 00:17:48;;;;;;;4.43;2.10;;;-1.40;99.90;;;;;;5056547;28;20423;-77
2022/01/22 00:20:15;;;;;;;3.10;2.17;;;-1.40;99.90;;;;;;5053303;28;20428;-78
2022/01/22 00:22:42;;;;;;;5.00;1.97;;;-1.40;99.90;;;;;;5054924;28;20411;-78
2022/01/22 00:25:09;;;;;;;5.70;2.23;;;-1.40;99.90;;;;;;5057959;28;20772;-80
2022/01/22 00:27:36;;;;;;;10.37;2.40;;;-1.40;99.90;;;;;;5058308;28;20517;-80
2022/01/22 00:30:04;;;;;;;4.97;2.03;;;-1.40;99.90;;;;;;5059729;28;20936;-80
2022/01/22 00:32:30;;;;;;;5.77;2.10;;;-1.40;99.90;;;;;;5054267;28;20940;-78
2022/01/22 00:34:55;;;;;;;5.47;2.10;;;-1.10;99.90;;;;;;5054497;28;20404;-78
2022/01/22 00:37:21;;;;;;;5.23;1.80;;;-1.40;99.90;;;;;;5054177;28;20200;-78
2022/01/22 00:39:47;;;;;;;3.20;1.67;;;-1.40;99.90;;;;;;5053094;28;20264;-79
2022/01/22 00:42:15;;;;;;;4.53;2.00;;;-1.40;99.90;;;;;;5059563;28;20188;-80
2022/01/22 00:44:42;;;;;;;5.67;1.87;;;-1.40;99.90;;;;;;5057287;28;20170;-78
2022/01/22 00:47:08;;;;;;;5.83;2.33;;;-1.30;99.90;;;;;;5052261;28;20871;-77
2022/01/22 00:49:35;;;;;;;3.67;1.93;;;0.30;99.90;;;;;;5052764;28;20411;-78
2022/01/22 00:52:01;;;;;;;3.23;1.97;;;-1.30;99.90;;;;;;5054090;28;20411;-78
2022/01/22 00:54:27;;;;;;;6.80;1.93;;;-1.30;99.90;;;;;;5052618;28;20458;-78
2022/01/22 00:56:53;;;;;;;4.47;1.90;;;-1.30;99.90;;;;;;5052296;28;20455;-77
2022/01/22 00:59:18;;;;;;;6.83;2.13;;;-1.20;99.90;;;;;;5052902;28;20184;-77
2022/01/22 01:01:44;;;;;;;4.70;2.10;;;-1.30;99.90;;;;;;5057250;28;20166;-77
2022/01/22 01:04:10;;;;;;;4.97;1.80;;;-1.30;99.90;;;;;;5057938;28;20173;-77
2022/01/22 01:06:37;;;;;;;3.60;1.80;;;-0.50;99.90;;;;;;5056593;28;20193;-77
2022/01/22 01:09:06;;;;;;;5.47;1.80;;;0.60;99.90;;;;;;5054338;28;20408;-78
2022/01/22 01:11:34;;;;;;;4.77;2.17;;;-1.30;99.90;;;;;;5056800;28;20404;-77
2022/01/22 01:14:02;;;;;;;2.77;1.80;;;-1.40;99.90;;;;;;5055597;28;20477;-78
2022/01/22 01:35:27;;;;;;;3.73;1.90;;;-1.30;99.90;;;;;;5056697;28;20381;-78
2022/01/22 01:37:55;;;;;;;8.77;1.90;;;-1.30;99.90;;;;;;5056429;28;20527;-78
2022/01/22 01:40:23;;;;;;;4.30;1.90;;;-1.30;99.90;;;;;;5056465;28;20495;-78
2022/01/22 01:43:03;;;;;;;6.03;1.87;;;-1.40;99.90;;;;;;5055158;28;20411;-77
2022/01/22 01:45:29;;;;;;;5.00;1.97;;;-1.20;99.90;;;;;;5057060;28;20404;-78
2022/01/22 01:48:03;;;;;;;2.03;1.43;;;-1.20;99.90;;;;;;5057081;28;20451;-78
2022/01/22 01:50:30;;;;;;;4.10;1.63;;;-1.20;99.90;;;;;;5058936;28;20172;-78
2022/01/22 01:53:26;;;;;;;5.73;1.97;;;-1.20;99.90;;;;;;5060271;28;20415;-78
2022/01/22 01:58:25;;;;;;;1.97;1.40;;;-1.20;99.90;;;;;;5061890;28;20407;-78
2022/01/22 02:00:51;;;;;;;7.47;2.40;;;-1.20;99.90;;;;;;5060153;28;20508;-78
2022/01/22 02:03:17;;;;;;;5.70;1.57;;;-1.20;99.90;;;;;;5061797;28;20412;-78
2022/01/22 02:05:43;;;;;;;2.03;1.30;;;-1.10;99.90;;;;;;5061130;28;20905;-78
2022/01/22 02:08:09;;;;;;;3.13;1.40;;;-1.10;99.90;;;;;;5061786;28;20459;-78
2022/01/22 02:10:41;;;;;;;4.00;1.73;;;0.10;99.90;;;;;;5060531;28;20241;-78
2022/01/22 02:24:05;;;;;;;2.67;1.63;;;-1.10;99.90;;;;;;5062350;28;20392;-78
2022/01/22 02:26:31;;;;;;;2.50;1.30;;;-1.00;99.90;;;;;;5060771;28;20535;-78
2022/01/22 02:28:57;;;;;;;2.20;1.27;;;-1.00;99.90;;;;;;5061768;28;20581;-78
2022/01/22 02:36:27;;;;;;;2.00;1.03;;;;;;;;;;5059119;28;20435;-78
2022/01/22 02:41:41;;;;;;;1.27;1.10;;;-0.10;99.90;;;;;;5057923;28;20435;-78
2022/01/22 02:44:11;;;;;;;1.73;1.20;;;-1.00;99.90;;;;;;5061067;28;20483;-77
2022/01/22 02:46:41;;;;;;;3.03;1.20;;;-0.90;99.90;;;;;;5069794;28;20459;-77
2022/01/22 02:49:07;;;;;;;4.00;1.23;;;-0.90;99.90;;;;;;5071513;28;20404;-78
2022/01/22 02:51:32;;;;;;;2.87;1.23;;;-1.00;99.90;;;;;;5064240;28;20416;-78
2022/01/22 02:53:59;;;;;;;2.37;1.03;;;-0.90;99.90;;;;;;5057676;28;20264;-78
2022/01/22 02:56:25;;;;;;;2.67;1.70;;;-0.90;99.90;;;;;;5057598;28;20667;-78
2022/01/22 02:58:53;;;;;;;2.83;1.10;;;-0.90;99.90;;;;;;5058428;28;20428;-78
2022/01/22 03:01:20;;;;;;;1.83;1.20;;;-0.90;99.90;;;;;;5058457;28;20527;-78
2022/01/22 03:03:46;;;;;;;1.67;0.90;;;-0.90;99.90;;;;;;5060544;28;20439;-78
2022/01/22 03:06:13;;;;;;;1.73;1.40;;;-0.90;99.90;;;;;;5059571;28;20436;-78
2022/01/22 03:08:41;;;;;;;6.33;1.67;;;-0.90;99.90;;;;;;5059248;28;20177;-78
2022/01/22 03:11:17;;;;;;;1.77;1.00;;;-0.90;99.90;;;;;;5058052;28;20462;-78
2022/01/22 03:18:49;;;;;;;2.40;1.60;;;-0.80;99.90;;;;;;5059826;28;20810;-78
2022/01/22 03:21:32;;;;;;;2.40;1.00;;;0.00;99.90;;;;;;5058422;28;20412;-78
2022/01/22 03:29:43;;;;;;;2.10;1.60;;;-0.80;99.90;;;;;;5059751;28;20876;-78
2022/01/22 03:32:11;;;;;;;0.83;0.83;;;-0.90;99.90;;;;;;5057566;28;20420;-78
2022/01/22 03:34:43;;;;;;;2.53;1.53;;;-0.90;99.90;;;;;;5058683;28;20773;-78
2022/01/22 03:37:09;;;;;;;1.70;1.27;;;-0.90;99.90;;;;;;5058069;28;20929;-77
2022/01/22 03:39:35;;;;;;;2.30;1.53;;;-0.80;99.90;;;;;;5057650;28;20444;-78
2022/01/22 03:42:01;;;;;;;4.37;1.43;;;-0.80;99.90;;;;;;5059735;28;20438;-78
2022/01/22 03:44:27;;;;;;;2.77;1.43;;;-0.80;99.90;;;;;;5059931;28;20529;-78
2022/01/22 03:46:52;;;;;;;3.80;1.20;;;-0.80;99.90;;;;;;5058927;28;20201;-78
2022/01/22 03:49:18;;;;;;;2.43;1.00;;;-0.80;99.90;;;;;;5059284;28;20237;-78
2022/01/22 03:51:44;;;;;;;2.93;1.27;;;-0.80;99.90;;;;;;5058587;28;20177;-78
2022/01/22 03:54:10;;;;;;;1.03;0.97;;;-0.90;99.90;;;;;;5057199;28;20169;-77
2022/01/22 03:56:38;;;;;;;1.27;0.83;;;-1.00;99.90;;;;;;5058258;28;20956;-78
2022/01/22 03:59:04;;;;;;;1.67;1.27;;;-1.00;99.90;;;;;;5059734;28;20577;-78
2022/01/22 04:04:15;;;;;;;1.73;1.20;;;-1.00;99.90;;;;;;5056906;28;20273;-78
2022/01/22 04:07:11;;;;;;;2.17;1.10;;;-1.00;99.90;;;;;;5057963;28;20459;-78
